createdAt,value
2019-03-18T00:02:13.831Z,99482.61
2019-03-18T00:04:44.140Z,99481.06
2019-03-18T00:07:14.325Z,99485.30
2019-03-18T00:12:27.898Z,99491.03
2019-03-18T00:15:01.525Z,99485.63
2019-03-18T00:17:39.751Z,99504.63
2019-03-18T00:20:21.688Z,99502.61
2019-03-18T00:22:52.011Z,99509.23
2019-03-18T00:25:25.009Z,99503.20
2019-03-18T00:27:55.531Z,99512.09
2019-03-18T00:30:26.174Z,99511.31
2019-03-18T00:32:58.044Z,99510.84
2019-03-18T00:35:28.341Z,99509.92
2019-03-18T00:37:58.609Z,99507.24
2019-03-18T00:40:28.869Z,99502.20
2019-03-18T00:45:41.586Z,99508.93
2019-03-18T00:50:53.859Z,99508.09
2019-03-18T00:56:07.154Z,99501.69
2019-03-18T00:58:37.363Z,99501.10
2019-03-18T01:01:08.148Z,99513.02
2019-03-18T01:03:38.402Z,99516.39
2019-03-18T01:06:08.715Z,99518.93
2019-03-18T01:08:39.423Z,99517.98
2019-03-18T01:11:11.774Z,99521.84
2019-03-18T01:13:42.050Z,99516.55
2019-03-18T01:16:12.278Z,99520.36
2019-03-18T01:18:42.774Z,99524.48
2019-03-18T01:21:13.684Z,99521.66
2019-03-18T01:23:43.958Z,99520.80
2019-03-18T01:26:14.670Z,99519.96
2019-03-18T01:28:45.209Z,99517.31
2019-03-18T01:31:15.492Z,99510.03
2019-03-18T01:33:45.666Z,99514.12
2019-03-18T01:36:17.699Z,99513.20
2019-03-18T01:38:48.740Z,99509.44
2019-03-18T01:41:19.555Z,99509.08
2019-03-18T01:43:50.225Z,99513.63
2019-03-18T01:46:21.166Z,99517.02
2019-03-18T01:48:52.698Z,99511.14
2019-03-18T01:51:23.754Z,99508.86
2019-03-18T01:53:54.181Z,99505.11
2019-03-18T01:56:24.787Z,99516.53
2019-03-18T01:58:57.297Z,99522.89
2019-03-18T02:01:27.829Z,99524.69
2019-03-18T02:03:58.181Z,99518.92
2019-03-18T02:09:11.396Z,99524.58
2019-03-18T02:14:24.845Z,99529.50
2019-03-18T02:17:07.534Z,99542.15
2019-03-18T02:19:37.732Z,99531.94
2019-03-18T02:22:08.058Z,99541.27
2019-03-18T02:24:38.322Z,99549.63
2019-03-18T02:27:10.707Z,99540.95
2019-03-18T02:30:01.749Z,99534.55
2019-03-18T02:32:32.744Z,99524.69
2019-03-18T02:35:02.972Z,99526.17
2019-03-18T02:37:33.289Z,99520.14
2019-03-18T02:40:03.626Z,99526.97
2019-03-18T02:42:52.910Z,99539.61
2019-03-18T02:45:42.031Z,99532.05
2019-03-18T02:48:12.548Z,99530.03
2019-03-18T02:51:01.698Z,99537.69
2019-03-18T02:53:31.963Z,99533.88
2019-03-18T02:56:02.161Z,99541.04
2019-03-18T02:58:32.805Z,99525.95
2019-03-18T03:01:03.095Z,99537.67
2019-03-18T03:03:36.740Z,99554.18
2019-03-18T03:08:55.688Z,99556.83
2019-03-18T03:11:27.778Z,99569.69
2019-03-18T03:13:59.747Z,99549.26
2019-03-18T03:16:30.373Z,99557.94
2019-03-18T03:19:00.924Z,99558.34
2019-03-18T03:21:31.526Z,99571.72
2019-03-18T03:24:03.360Z,99572.46
2019-03-18T03:26:35.302Z,99559.59
2019-03-18T03:29:17.730Z,99555.81
2019-03-18T03:31:48.385Z,99555.00
2019-03-18T03:34:18.752Z,99565.59
2019-03-18T03:36:50.691Z,99557.98
2019-03-18T03:39:20.953Z,99561.18
2019-03-18T03:41:52.093Z,99574.05
2019-03-18T03:44:22.312Z,99575.84
2019-03-18T03:46:53.024Z,99581.14
2019-03-18T03:52:03.783Z,99578.08
2019-03-18T03:54:34.186Z,99591.31
2019-03-18T03:57:04.810Z,99600.76
2019-03-18T03:59:47.417Z,99613.37
2019-03-18T04:02:16.749Z,99625.19
2019-03-18T04:04:47.080Z,99613.63
2019-03-18T04:07:29.403Z,99594.50
2019-03-18T04:10:18.952Z,99588.67
2019-03-18T04:12:49.671Z,99591.16
2019-03-18T04:15:20.288Z,99602.84
2019-03-18T04:17:50.757Z,99601.92
2019-03-18T04:20:21.041Z,99602.30
2019-03-18T04:22:51.559Z,99599.28
2019-03-18T04:25:40.734Z,99597.76
2019-03-18T04:28:11.260Z,99614.56
2019-03-18T04:31:00.434Z,99607.00
2019-03-18T04:36:34.140Z,99611.44
2019-03-18T04:39:16.141Z,99617.58
2019-03-18T04:41:46.495Z,99625.33
2019-03-18T04:44:17.609Z,99639.67
2019-03-18T04:47:14.269Z,99626.73
2019-03-18T04:49:48.134Z,99637.03
2019-03-18T04:52:18.543Z,99643.44
2019-03-18T04:54:48.810Z,99637.58
2019-03-18T04:57:19.630Z,99635.14
2019-03-18T05:02:51.779Z,99652.48
2019-03-18T05:05:23.959Z,99650.59
2019-03-18T05:07:54.714Z,99650.97
2019-03-18T05:10:25.026Z,99657.95
2019-03-18T05:12:55.363Z,99654.35
2019-03-18T05:15:46.361Z,99667.40
2019-03-18T05:18:36.811Z,99663.23
2019-03-18T05:21:16.559Z,99663.13
2019-03-18T05:26:28.350Z,99662.28
2019-03-18T05:28:58.981Z,99661.12
2019-03-18T05:31:31.227Z,99662.66
2019-03-18T05:34:03.610Z,99664.25
2019-03-18T05:36:34.242Z,99650.92
2019-03-18T05:42:07.393Z,99666.78
2019-03-18T05:44:37.581Z,99671.77
2019-03-18T05:47:07.901Z,99670.27
2019-03-18T05:49:53.782Z,99669.12
2019-03-18T05:52:43.188Z,99694.52
2019-03-18T05:55:32.533Z,99685.25
2019-03-18T05:58:04.509Z,99688.06
2019-03-18T06:00:34.758Z,99683.83
2019-03-18T06:03:04.979Z,99690.34
2019-03-18T06:05:41.445Z,99684.97
2019-03-18T06:08:18.031Z,99686.19
2019-03-18T06:10:48.876Z,99685.61
2019-03-18T06:13:19.290Z,99699.01
2019-03-18T06:15:49.543Z,99688.04
2019-03-18T06:18:20.285Z,99702.38
2019-03-18T06:20:51.050Z,99713.06
2019-03-18T06:23:40.314Z,99714.92
2019-03-18T06:26:12.708Z,99721.63
2019-03-18T06:28:55.092Z,99724.33
2019-03-18T06:31:25.766Z,99728.97
2019-03-18T06:33:55.943Z,99727.45
2019-03-18T06:36:26.301Z,99739.70
2019-03-18T06:38:56.999Z,99750.48
2019-03-18T06:41:27.588Z,99754.78
2019-03-18T06:43:57.958Z,99764.31
2019-03-18T06:46:47.324Z,99757.05
2019-03-18T06:49:18.119Z,99761.97
2019-03-18T06:51:48.522Z,99760.08
2019-03-18T06:54:19.667Z,99774.90
2019-03-18T06:57:09.090Z,99776.32
2019-03-18T06:59:39.821Z,99794.27
2019-03-18T07:02:11.662Z,99784.91
2019-03-18T07:04:42.142Z,99793.31
2019-03-18T07:07:31.468Z,99777.81
2019-03-18T07:10:13.696Z,99780.66
2019-03-18T07:13:02.794Z,99785.55
2019-03-18T07:15:33.688Z,99791.20
2019-03-18T07:18:17.160Z,99788.76
2019-03-18T07:20:45.176Z,99801.00
2019-03-18T07:23:15.388Z,99799.68
2019-03-18T07:26:04.990Z,99789.67
2019-03-18T07:28:35.247Z,99803.28
2019-03-18T07:31:05.729Z,99806.86
2019-03-18T07:33:55.074Z,99794.31
2019-03-18T07:39:07.694Z,99830.08
2019-03-18T07:41:37.953Z,99832.50
2019-03-18T07:44:08.350Z,99825.34
2019-03-18T07:46:39.117Z,99838.31
2019-03-18T07:49:09.316Z,99842.66
2019-03-18T07:51:39.559Z,99850.61
2019-03-18T07:54:10.236Z,99849.07
2019-03-18T07:56:40.839Z,99851.91
2019-03-18T07:59:11.106Z,99864.74
2019-03-18T08:01:42.069Z,99862.17
2019-03-18T08:04:12.762Z,99861.48
2019-03-18T08:06:54.918Z,99867.34
2019-03-18T08:09:25.492Z,99865.33
2019-03-18T08:11:55.700Z,99880.76
2019-03-18T08:14:25.972Z,99863.27
2019-03-18T08:16:56.273Z,99888.19
2019-03-18T08:19:26.437Z,99871.87
2019-03-18T08:21:58.295Z,99899.16
2019-03-18T08:24:28.526Z,99877.73
2019-03-18T08:26:59.131Z,99890.59
2019-03-18T08:29:30.949Z,99898.15
2019-03-18T08:32:01.168Z,99894.17
2019-03-18T08:34:33.544Z,99885.82
2019-03-18T08:37:03.872Z,99907.86
2019-03-18T08:42:14.919Z,99899.77
2019-03-18T08:44:45.906Z,99900.69
2019-03-18T08:50:20.976Z,99925.34
2019-03-18T08:53:03.020Z,99922.22
2019-03-18T08:55:33.684Z,99933.51
2019-03-18T08:58:04.031Z,99951.65
2019-03-18T09:00:34.250Z,99942.98
2019-03-18T09:03:04.419Z,99955.01
2019-03-18T09:05:34.626Z,99957.03
2019-03-18T09:08:05.553Z,99965.51
2019-03-18T09:10:36.633Z,99955.05
2019-03-18T09:13:06.784Z,99966.73
2019-03-18T09:15:56.107Z,99957.73
2019-03-18T09:18:38.419Z,99966.44
2019-03-18T09:21:09.145Z,99947.08
2019-03-18T09:23:45.926Z,99984.48
2019-03-18T09:26:17.083Z,99986.84
2019-03-18T09:28:47.441Z,99983.10
2019-03-18T09:31:18.334Z,99980.13
2019-03-18T09:34:07.680Z,99983.88
2019-03-18T09:42:22.048Z,99993.80
2019-03-18T09:44:52.366Z,99984.46
2019-03-18T09:47:42.031Z,100009.49
2019-03-18T09:50:52.141Z,100009.92
2019-03-18T09:53:22.460Z,100002.98
2019-03-18T09:55:53.462Z,100003.46
2019-03-18T09:58:23.772Z,100006.48
2019-03-18T10:00:55.587Z,99989.97
2019-03-18T10:03:36.115Z,99998.03
2019-03-18T10:06:06.300Z,100004.25
2019-03-18T10:08:55.554Z,100013.43
2019-03-18T10:11:26.278Z,100020.34
2019-03-18T10:13:56.510Z,100023.02
2019-03-18T10:16:45.937Z,100028.20
2019-03-18T10:19:16.871Z,100026.32
2019-03-18T10:22:06.662Z,100030.56
2019-03-18T10:24:37.516Z,100031.16
2019-03-18T10:27:07.814Z,100062.16
2019-03-18T10:29:38.202Z,100057.66
2019-03-18T10:32:09.524Z,100076.84
2019-03-18T10:34:40.143Z,100093.33
2019-03-18T10:37:10.470Z,100100.12
2019-03-18T10:39:59.620Z,100101.27
2019-03-18T10:42:30.020Z,100102.73
2019-03-18T10:45:00.363Z,100106.84
2019-03-18T10:47:31.130Z,100111.33
2019-03-18T10:50:01.454Z,100131.83
2019-03-18T10:52:31.720Z,100129.58
2019-03-18T10:55:02.052Z,100146.36
2019-03-18T10:57:51.660Z,100153.80
2019-03-18T11:00:33.725Z,100155.97
2019-03-18T11:03:15.550Z,100186.56
2019-03-18T11:05:45.877Z,100200.50
2019-03-18T11:08:16.137Z,100207.67
2019-03-18T11:10:46.553Z,100199.53
2019-03-18T11:13:16.747Z,100207.47
2019-03-18T11:15:47.588Z,100189.27
2019-03-18T11:21:19.710Z,100199.96
2019-03-18T11:23:50.052Z,100208.19
2019-03-18T11:26:39.394Z,100209.55
2019-03-18T11:29:10.001Z,100219.95
2019-03-18T11:31:42.342Z,100223.92
2019-03-18T11:34:12.617Z,100217.92
2019-03-18T11:37:01.988Z,100210.03
2019-03-18T11:39:51.548Z,100208.47
2019-03-18T11:42:34.216Z,100225.53
2019-03-18T11:45:16.765Z,100219.20
2019-03-18T11:47:47.338Z,100218.64
2019-03-18T11:50:17.787Z,100209.70
2019-03-18T11:52:59.517Z,100222.76
2019-03-18T11:55:41.219Z,100215.72
2019-03-18T11:58:23.480Z,100221.81
2019-03-18T12:01:12.842Z,100227.80
2019-03-18T12:03:43.885Z,100229.02
2019-03-18T12:06:14.567Z,100220.61
2019-03-18T12:08:45.102Z,100214.92
2019-03-18T12:11:15.823Z,100230.48
2019-03-18T12:13:46.529Z,100237.70
2019-03-18T12:16:16.938Z,100253.70
2019-03-18T12:18:47.369Z,100253.68
2019-03-18T12:21:17.968Z,100244.13
2019-03-18T12:23:48.261Z,100246.61
2019-03-18T12:26:37.685Z,100268.10
2019-03-18T12:29:08.126Z,100266.64
2019-03-18T12:31:38.497Z,100276.09
2019-03-18T12:34:10.571Z,100264.37
2019-03-18T12:36:40.989Z,100270.89
2019-03-18T12:39:30.896Z,100268.79
2019-03-18T12:42:12.471Z,100274.11
2019-03-18T12:48:23.641Z,100310.09
2019-03-18T12:50:56.804Z,100317.36
2019-03-18T12:53:36.893Z,100306.20
2019-03-18T12:56:07.165Z,100311.52
2019-03-18T12:58:37.460Z,100307.44
2019-03-18T13:01:12.853Z,100319.02
2019-03-18T13:04:08.320Z,100328.31
2019-03-18T13:06:38.918Z,100316.89
2019-03-18T13:09:28.595Z,100329.00
2019-03-18T13:12:13.179Z,100336.52
2019-03-18T13:14:43.110Z,100321.40
2019-03-18T13:17:13.482Z,100333.20
2019-03-18T13:19:43.754Z,100347.30
2019-03-18T13:22:14.155Z,100348.13
2019-03-18T13:27:46.048Z,100354.01
2019-03-18T13:30:17.033Z,100364.39
2019-03-18T13:32:48.298Z,100367.24
2019-03-18T13:35:19.054Z,100377.64
2019-03-18T13:37:49.968Z,100377.72
2019-03-18T13:40:20.732Z,100389.47
2019-03-18T13:43:10.074Z,100377.95
2019-03-18T13:45:40.521Z,100386.40
2019-03-18T13:48:10.844Z,100397.34
2019-03-18T13:50:41.415Z,100394.97
2019-03-18T13:53:11.960Z,100398.62
2019-03-18T13:55:44.425Z,100389.42
2019-03-18T13:58:16.464Z,100399.33
2019-03-18T14:00:47.813Z,100403.28
2019-03-18T14:03:18.298Z,100413.22
2019-03-18T14:05:50.998Z,100409.43
2019-03-18T14:08:21.782Z,100401.34
2019-03-18T14:10:52.598Z,100414.33
2019-03-18T14:13:23.563Z,100415.23
2019-03-18T14:15:54.297Z,100414.27
2019-03-18T14:18:24.623Z,100452.45
2019-03-18T14:24:04.641Z,100457.45
2019-03-18T14:26:35.182Z,100449.48
2019-03-18T14:29:05.464Z,100461.25
2019-03-18T14:34:38.085Z,100455.17
2019-03-18T14:37:12.397Z,100476.53
2019-03-18T14:39:43.031Z,100470.08
2019-03-18T14:42:33.388Z,100480.91
2019-03-18T14:45:44.893Z,100472.70
2019-03-18T14:48:27.491Z,100489.19
2019-03-18T14:50:58.403Z,100497.09
2019-03-18T14:53:47.911Z,100486.34
2019-03-18T14:56:19.077Z,100477.99
2019-03-18T14:59:08.858Z,100488.42
2019-03-18T15:01:58.488Z,100506.30
2019-03-18T15:04:28.866Z,100517.69
2019-03-18T15:06:59.759Z,100511.80
2019-03-18T15:09:30.075Z,100520.55
2019-03-18T15:12:00.735Z,100523.22
2019-03-18T15:14:30.978Z,100524.75
2019-03-18T15:17:03.562Z,100529.69
2019-03-18T15:19:33.942Z,100537.86
2019-03-18T15:22:04.876Z,100547.23
2019-03-18T15:24:35.576Z,100549.04
2019-03-18T15:27:07.909Z,100555.20
2019-03-18T15:29:38.213Z,100592.13
2019-03-18T15:32:11.121Z,100579.22
2019-03-18T15:34:41.677Z,100593.70
2019-03-18T15:37:12.910Z,100604.00
2019-03-18T15:39:43.775Z,100602.73
2019-03-18T15:42:14.090Z,100608.34
2019-03-18T15:50:39.083Z,100608.85
2019-03-18T15:53:10.993Z,100639.05
2019-03-18T15:55:41.506Z,100627.41
2019-03-18T15:58:29.425Z,100639.08
2019-03-18T16:04:01.126Z,100639.84
2019-03-18T16:06:33.335Z,100643.03
2019-03-18T16:09:03.800Z,100644.98
2019-03-18T16:11:34.898Z,100651.08
2019-03-18T16:14:05.370Z,100660.51
2019-03-18T16:16:37.387Z,100667.61
2019-03-18T16:19:10.079Z,100674.30
2019-03-18T16:21:40.709Z,100677.19
2019-03-18T16:24:11.015Z,100678.23
2019-03-18T16:26:41.939Z,100692.58
2019-03-18T16:29:12.570Z,100682.65
2019-03-18T16:31:43.226Z,100681.14
2019-03-18T16:34:13.997Z,100688.78
2019-03-18T16:37:03.717Z,100696.73
2019-03-18T16:39:34.351Z,100693.14
2019-03-18T16:42:06.517Z,100706.41
2019-03-18T16:44:36.731Z,100721.01
2019-03-18T16:47:27.912Z,100725.52
2019-03-18T16:52:56.930Z,100745.08
2019-03-18T16:55:28.041Z,100750.61
2019-03-18T16:57:58.381Z,100751.76
2019-03-18T17:00:28.708Z,100756.36
2019-03-18T17:03:11.510Z,100759.56
2019-03-18T17:06:11.563Z,100768.38
2019-03-18T17:11:34.297Z,100770.59
2019-03-18T17:14:05.319Z,100778.45
2019-03-18T17:16:47.658Z,100783.23
2019-03-18T17:19:18.288Z,100791.19
2019-03-18T17:21:50.161Z,100789.05
2019-03-18T17:24:20.487Z,100796.48
2019-03-18T17:26:51.188Z,100798.75
2019-03-18T17:29:23.574Z,100796.95
2019-03-18T17:32:12.923Z,100800.54
2019-03-18T17:34:44.306Z,100800.46
2019-03-18T17:37:15.536Z,100805.03
2019-03-18T17:39:46.198Z,100812.67
2019-03-18T17:42:16.406Z,100818.75
2019-03-18T17:45:05.984Z,100824.20
2019-03-18T17:47:36.329Z,100826.38
2019-03-18T17:50:10.133Z,100834.53
2019-03-18T17:52:41.110Z,100844.20
2019-03-18T17:55:23.266Z,100850.70
2019-03-18T18:03:41.479Z,100874.77
2019-03-18T18:06:30.980Z,100881.74
2019-03-18T18:12:00.627Z,100894.13
2019-03-18T18:14:27.235Z,100899.71
2019-03-18T18:16:59.674Z,100903.80
2019-03-18T18:19:31.785Z,100909.65
2019-03-18T18:22:02.638Z,100912.18
2019-03-18T18:24:32.888Z,100913.93
2019-03-18T18:29:44.858Z,100930.48
2019-03-18T18:32:28.947Z,100934.06
2019-03-18T18:34:58.033Z,100937.58
2019-03-18T18:37:47.453Z,100939.23
2019-03-18T18:40:19.520Z,100950.77
2019-03-18T18:42:49.800Z,100956.60
2019-03-18T18:45:21.223Z,100970.62
2019-03-18T18:48:01.763Z,100982.00
2019-03-18T18:50:34.138Z,100983.33
2019-03-18T18:53:06.122Z,100985.52
2019-03-18T18:55:37.184Z,100999.61
2019-03-18T18:58:19.378Z,101000.43
2019-03-18T19:01:01.486Z,101004.91
2019-03-18T19:09:24.434Z,101019.30
2019-03-18T19:11:55.116Z,101025.32
2019-03-18T19:14:25.816Z,101034.66
2019-03-18T19:16:57.023Z,101038.95
2019-03-18T19:19:27.230Z,101036.59
2019-03-18T19:22:18.184Z,101038.30
2019-03-18T19:27:30.631Z,101041.34
2019-03-18T19:30:20.125Z,101038.30
2019-03-18T19:33:10.215Z,101038.84
2019-03-18T19:35:40.866Z,101047.83
2019-03-18T19:38:11.171Z,101054.91
2019-03-18T19:40:41.542Z,101045.72
2019-03-18T19:43:13.400Z,101058.70
2019-03-18T19:45:44.364Z,101061.42
2019-03-18T19:48:15.133Z,101062.07
2019-03-18T19:50:45.497Z,101065.25
2019-03-18T19:53:15.921Z,101072.34
2019-03-18T19:55:46.228Z,101075.91
2019-03-18T19:58:18.275Z,101081.45
2019-03-18T20:00:48.531Z,101081.45
2019-03-18T20:03:19.204Z,101085.56
2019-03-18T20:05:49.513Z,101092.50
2019-03-18T20:11:21.829Z,101094.83
2019-03-18T20:13:52.500Z,101100.19
2019-03-18T20:16:42.268Z,101107.66
2019-03-18T20:19:13.545Z,101114.39
2019-03-18T20:21:43.867Z,101122.39
2019-03-18T20:24:27.224Z,101119.95
2019-03-18T20:26:57.715Z,101126.70
2019-03-18T20:29:27.924Z,101132.00
2019-03-18T20:31:59.468Z,101132.00
2019-03-18T20:34:30.510Z,101129.91
2019-03-18T20:37:02.904Z,101142.68
2019-03-18T20:39:35.013Z,101143.61
2019-03-18T20:42:18.383Z,101149.30
2019-03-18T20:45:00.671Z,101141.83
2019-03-18T20:47:31.681Z,101146.25
2019-03-18T20:50:02.660Z,101147.05
2019-03-18T20:53:26.790Z,101158.95
2019-03-18T20:55:56.242Z,101161.67
2019-03-18T20:58:27.782Z,101177.02
2019-03-18T21:00:58.421Z,101174.67
2019-03-18T21:03:28.881Z,101179.36
2019-03-18T21:05:59.614Z,101182.64
2019-03-18T21:08:30.263Z,101185.95
2019-03-18T21:11:01.756Z,101184.45
2019-03-18T21:13:32.546Z,101193.19
2019-03-18T21:16:04.581Z,101191.73
2019-03-18T21:21:38.847Z,101206.05
2019-03-18T21:24:28.647Z,101210.35
2019-03-18T21:26:59.034Z,101214.26
2019-03-18T21:29:29.369Z,101229.75
2019-03-18T21:32:01.743Z,101220.22
2019-03-18T21:37:42.396Z,101227.08
2019-03-18T21:40:27.930Z,101232.56
2019-03-18T21:43:00.073Z,101231.31
2019-03-18T21:45:32.879Z,101227.77
2019-03-18T21:48:22.259Z,101236.27
2019-03-18T21:50:52.907Z,101235.08
2019-03-18T21:53:24.930Z,101246.34
2019-03-18T21:55:56.996Z,101245.22
2019-03-18T21:58:27.203Z,101251.50
2019-03-18T22:00:57.964Z,101253.78
2019-03-18T22:03:30.329Z,101256.95
2019-03-18T22:06:01.061Z,101257.47
2019-03-18T22:08:37.707Z,101260.13
2019-03-18T22:11:08.049Z,101265.81
2019-03-18T22:16:20.167Z,101266.09
2019-03-18T22:21:31.633Z,101270.86
2019-03-18T22:24:01.823Z,101272.24
2019-03-18T22:26:33.675Z,101271.50
2019-03-18T22:32:04.830Z,101285.80
2019-03-18T22:34:37.100Z,101278.33
2019-03-18T22:37:08.154Z,101281.03
2019-03-18T22:39:38.571Z,101281.37
2019-03-18T22:42:08.971Z,101281.89
2019-03-18T22:47:43.051Z,101273.84
2019-03-18T22:50:24.663Z,101287.64
2019-03-18T22:53:14.315Z,101291.67
2019-03-18T22:55:55.969Z,101288.23
2019-03-18T22:58:26.603Z,101289.55
2019-03-18T23:01:15.766Z,101298.47
2019-03-18T23:04:00.505Z,101299.73
2019-03-18T23:07:12.202Z,101301.91
2019-03-18T23:10:01.808Z,101305.09
2019-03-18T23:12:51.491Z,101316.20
2019-03-18T23:15:23.708Z,101322.41
2019-03-18T23:18:05.865Z,101322.87
2019-03-18T23:20:36.094Z,101330.34
2019-03-18T23:23:06.684Z,101336.55
2019-03-18T23:28:20.703Z,101344.53
2019-03-18T23:31:02.935Z,101347.23
2019-03-18T23:33:33.359Z,101351.72
2019-03-18T23:36:03.574Z,101348.23
2019-03-18T23:38:34.301Z,101355.31
2019-03-18T23:41:16.972Z,101361.41
2019-03-18T23:43:47.344Z,101358.81
2019-03-18T23:46:18.110Z,101365.89
2019-03-18T23:48:48.420Z,101372.90
2019-03-18T23:51:37.712Z,101371.63
2019-03-18T23:54:13.746Z,101373.88
2019-03-18T23:56:46.098Z,101379.27
2019-03-18T23:59:16.955Z,101379.73
